createdAt,value
2019-04-16T00:01:58.108Z,46.59
2019-04-16T00:05:06.341Z,46.76
2019-04-16T00:08:01.120Z,46.81
2019-04-16T00:11:12.071Z,47.09
2019-04-16T00:14:09.848Z,47.60
2019-04-16T00:16:58.989Z,46.69
2019-04-16T00:19:48.013Z,47.86
2019-04-16T00:22:42.173Z,47.85
2019-04-16T00:25:30.610Z,47.90
2019-04-16T00:28:19.430Z,47.93
2019-04-16T00:31:08.460Z,48.27
2019-04-16T00:33:56.788Z,47.78
2019-04-16T00:36:48.460Z,47.34
2019-04-16T00:39:37.132Z,47.87
2019-04-16T00:42:25.248Z,48.02
2019-04-16T00:45:13.992Z,48.54
2019-04-16T00:48:03.164Z,48.80
2019-04-16T00:50:52.350Z,48.87
2019-04-16T00:53:41.007Z,49.04
2019-04-16T00:56:29.139Z,49.20
2019-04-16T00:59:17.266Z,49.59
2019-04-16T01:02:05.785Z,49.84
2019-04-16T01:04:54.989Z,49.47
2019-04-16T01:07:43.531Z,49.36
2019-04-16T01:10:31.879Z,49.45
2019-04-16T01:13:21.699Z,49.78
2019-04-16T01:16:09.894Z,50.32
2019-04-16T01:18:59.089Z,50.01
2019-04-16T01:21:48.179Z,49.78
2019-04-16T01:24:36.965Z,49.94
2019-04-16T01:27:32.518Z,50.42
2019-04-16T01:30:31.077Z,50.34
2019-04-16T01:33:35.644Z,50.79
2019-04-16T01:36:35.797Z,51.14
2019-04-16T01:39:26.921Z,50.30
2019-04-16T01:42:15.967Z,50.81
2019-04-16T01:45:07.367Z,50.87
2019-04-16T01:47:56.106Z,50.19
2019-04-16T01:50:44.816Z,51.67
2019-04-16T01:53:33.172Z,51.24
2019-04-16T01:56:21.767Z,51.51
2019-04-16T01:59:10.393Z,51.11
2019-04-16T02:01:59.241Z,50.56
2019-04-16T02:04:48.439Z,50.49
2019-04-16T02:07:37.686Z,51.43
2019-04-16T02:10:25.805Z,51.83
2019-04-16T02:13:15.282Z,52.58
2019-04-16T02:16:04.958Z,52.60
2019-04-16T02:18:53.835Z,52.47
2019-04-16T02:21:45.423Z,52.98
2019-04-16T02:24:33.989Z,53.01
2019-04-16T02:27:23.437Z,52.93
2019-04-16T02:30:13.086Z,53.01
2019-04-16T02:33:02.050Z,53.20
2019-04-16T02:35:50.887Z,53.63
2019-04-16T02:38:46.417Z,53.47
2019-04-16T02:41:30.001Z,53.37
2019-04-16T02:44:19.669Z,53.44
2019-04-16T02:47:08.773Z,53.41
2019-04-16T02:49:58.930Z,53.16
2019-04-16T02:52:52.709Z,53.27
2019-04-16T02:55:48.061Z,52.68
2019-04-16T02:58:41.444Z,52.06
2019-04-16T03:01:49.369Z,51.73
2019-04-16T03:04:50.899Z,51.87
2019-04-16T03:07:39.816Z,52.63
2019-04-16T03:10:28.748Z,52.28
2019-04-16T03:13:17.541Z,52.69
2019-04-16T03:16:25.199Z,52.64
2019-04-16T03:19:20.276Z,53.14
2019-04-16T03:22:09.027Z,53.55
2019-04-16T03:24:57.797Z,54.11
2019-04-16T03:27:51.481Z,54.28
2019-04-16T03:30:42.542Z,54.22
2019-04-16T03:33:30.726Z,54.64
2019-04-16T03:36:18.992Z,54.91
2019-04-16T03:39:11.974Z,55.18
2019-04-16T03:41:57.720Z,54.81
2019-04-16T03:44:46.293Z,55.19
2019-04-16T03:47:37.459Z,54.86
2019-04-16T03:50:31.079Z,55.07
2019-04-16T03:53:17.932Z,55.07
2019-04-16T03:56:08.137Z,55.22
2019-04-16T03:58:56.945Z,54.95
2019-04-16T04:01:46.723Z,54.54
2019-04-16T04:04:38.067Z,54.64
2019-04-16T04:07:27.021Z,54.56
2019-04-16T04:10:28.999Z,55.37
2019-04-16T04:13:05.837Z,55.88
2019-04-16T04:15:58.545Z,55.74
2019-04-16T04:18:48.237Z,55.25
2019-04-16T04:21:36.362Z,54.85
2019-04-16T04:24:24.952Z,54.63
2019-04-16T04:27:18.211Z,54.36
2019-04-16T04:30:04.812Z,54.23
2019-04-16T04:32:53.793Z,54.40
2019-04-16T04:35:42.779Z,54.62
2019-04-16T04:38:33.577Z,55.27
2019-04-16T04:41:23.046Z,55.81
2019-04-16T04:44:11.359Z,56.01
2019-04-16T04:46:59.950Z,56.39
2019-04-16T04:49:48.128Z,56.05
2019-04-16T04:52:38.432Z,56.17
2019-04-16T04:55:27.431Z,56.38
2019-04-16T04:58:16.447Z,56.03
2019-04-16T05:01:05.551Z,56.28
2019-04-16T05:04:26.113Z,56.49
2019-04-16T05:07:15.206Z,56.14
2019-04-16T05:10:07.545Z,57.10
2019-04-16T05:12:55.581Z,57.23
2019-04-16T05:15:44.512Z,56.90
2019-04-16T05:18:32.867Z,57.52
2019-04-16T05:21:21.293Z,57.42
2019-04-16T05:24:10.153Z,57.54
2019-04-16T05:26:58.852Z,58.00
2019-04-16T05:29:48.856Z,57.50
2019-04-16T05:32:37.717Z,58.16
2019-04-16T05:35:26.433Z,58.35
2019-04-16T05:38:14.676Z,58.10
2019-04-16T05:41:13.318Z,57.68
2019-04-16T05:43:53.292Z,57.62
2019-04-16T05:46:46.261Z,57.13
2019-04-16T05:49:32.136Z,57.12
2019-04-16T05:52:21.000Z,56.78
2019-04-16T05:55:26.621Z,57.21
2019-04-16T05:58:15.082Z,57.07
2019-04-16T06:01:14.763Z,56.54
2019-04-16T06:04:03.645Z,55.99
2019-04-16T06:06:52.614Z,56.17
2019-04-16T06:09:41.498Z,56.22
2019-04-16T06:12:45.560Z,56.22
2019-04-16T06:15:59.423Z,55.82
2019-04-16T06:19:19.360Z,55.37
2019-04-16T06:22:30.269Z,55.97
2019-04-16T06:25:41.047Z,56.40
2019-04-16T06:29:00.164Z,56.15
2019-04-16T06:32:11.903Z,55.90
2019-04-16T06:35:26.377Z,55.69
2019-04-16T06:38:24.175Z,55.86
2019-04-16T06:41:41.392Z,56.32
2019-04-16T06:44:24.209Z,55.73
2019-04-16T06:47:31.631Z,55.49
2019-04-16T06:50:32.227Z,55.83
2019-04-16T06:53:46.620Z,55.74
2019-04-16T06:56:52.645Z,55.25
2019-04-16T07:00:12.326Z,55.33
2019-04-16T07:03:18.956Z,55.48
2019-04-16T07:06:36.156Z,55.35
2019-04-16T07:09:45.982Z,55.95
2019-04-16T07:12:38.585Z,55.95
2019-04-16T07:15:28.552Z,55.84
2019-04-16T07:18:20.767Z,55.03
2019-04-16T07:21:10.621Z,55.41
2019-04-16T07:24:01.725Z,55.01
2019-04-16T07:26:51.085Z,54.67
2019-04-16T07:29:46.657Z,54.92
2019-04-16T07:32:54.022Z,54.82
2019-04-16T07:35:55.133Z,54.14
2019-04-16T07:38:49.394Z,54.20
2019-04-16T07:42:09.481Z,53.56
2019-04-16T07:45:15.829Z,54.12
2019-04-16T07:48:11.070Z,54.23
2019-04-16T07:51:18.664Z,53.70
2019-04-16T07:54:24.519Z,53.29
2019-04-16T07:57:13.537Z,52.65
2019-04-16T08:00:02.355Z,52.71
2019-04-16T08:02:53.627Z,52.37
2019-04-16T08:05:42.931Z,52.13
2019-04-16T08:08:32.201Z,51.66
2019-04-16T08:11:23.077Z,51.20
2019-04-16T08:14:14.548Z,51.29
2019-04-16T08:17:01.008Z,50.70
2019-04-16T08:19:49.937Z,50.67
2019-04-16T08:22:40.114Z,51.01
2019-04-16T08:25:33.502Z,50.30
2019-04-16T08:28:20.661Z,50.19
2019-04-16T08:31:14.507Z,50.74
2019-04-16T08:34:03.283Z,49.94
2019-04-16T08:36:52.255Z,50.53
2019-04-16T08:39:40.975Z,49.52
2019-04-16T08:42:43.662Z,50.13
2019-04-16T08:45:20.868Z,48.12
2019-04-16T08:48:17.038Z,47.91
2019-04-16T08:51:04.737Z,48.05
2019-04-16T08:53:52.081Z,47.60
2019-04-16T08:56:43.222Z,47.45
2019-04-16T08:59:30.760Z,47.15
2019-04-16T09:02:19.143Z,45.57
2019-04-16T09:05:11.402Z,45.90
2019-04-16T09:08:12.701Z,45.58
2019-04-16T09:10:55.945Z,45.15
2019-04-16T09:13:51.532Z,43.70
2019-04-16T09:16:49.923Z,43.04
2019-04-16T09:19:40.256Z,42.59
2019-04-16T09:22:31.212Z,43.11
2019-04-16T09:25:46.057Z,43.17
2019-04-16T09:29:01.032Z,43.93
2019-04-16T09:32:11.467Z,43.41
2019-04-16T09:35:20.440Z,43.72
2019-04-16T09:38:19.553Z,41.57
2019-04-16T09:41:32.615Z,42.20
2019-04-16T09:44:21.289Z,41.32
2019-04-16T09:47:09.835Z,40.95
2019-04-16T09:49:58.742Z,40.73
2019-04-16T09:52:46.893Z,40.68
2019-04-16T09:55:36.030Z,40.79
2019-04-16T09:58:25.590Z,39.90
2019-04-16T10:01:13.764Z,38.83
2019-04-16T10:04:02.277Z,38.50
2019-04-16T10:06:51.169Z,38.10
2019-04-16T10:09:39.500Z,38.87
2019-04-16T10:12:28.600Z,38.95
2019-04-16T10:15:17.360Z,38.66
2019-04-16T10:18:05.771Z,37.47
2019-04-16T10:20:55.183Z,36.78
2019-04-16T10:23:50.675Z,36.93
2019-04-16T10:26:39.574Z,36.78
2019-04-16T10:29:28.323Z,36.67
2019-04-16T10:32:18.331Z,36.34
2019-04-16T10:35:07.572Z,36.05
2019-04-16T10:37:58.968Z,36.44
2019-04-16T10:40:52.571Z,37.24
2019-04-16T10:44:18.401Z,34.18
2019-04-16T10:47:25.763Z,35.34
2019-04-16T10:50:42.992Z,35.82
2019-04-16T10:53:59.070Z,35.20
2019-04-16T10:57:10.116Z,34.43
2019-04-16T11:00:16.119Z,34.17
2019-04-16T11:03:28.752Z,32.11
2019-04-16T11:06:30.890Z,33.31
2019-04-16T11:09:19.975Z,32.80
2019-04-16T11:12:08.534Z,32.46
2019-04-16T11:14:57.592Z,31.45
2019-04-16T11:17:46.260Z,32.36
2019-04-16T11:20:35.319Z,30.64
2019-04-16T11:23:23.931Z,31.24
2019-04-16T11:26:13.040Z,30.42
2019-04-16T11:29:01.459Z,30.93
2019-04-16T11:31:49.636Z,31.62
2019-04-16T11:34:38.160Z,31.74
2019-04-16T11:37:26.956Z,30.64
2019-04-16T11:40:16.170Z,30.21
2019-04-16T11:43:04.477Z,30.49
2019-04-16T11:45:52.982Z,32.25
2019-04-16T11:48:41.901Z,31.81
2019-04-16T11:51:31.026Z,31.56
2019-04-16T11:54:19.625Z,30.60
2019-04-16T11:57:08.389Z,31.22
2019-04-16T12:00:06.694Z,31.56
2019-04-16T12:03:08.946Z,31.31
2019-04-16T12:06:27.071Z,30.67
2019-04-16T12:09:32.473Z,30.97
2019-04-16T12:12:40.290Z,31.65
2019-04-16T12:15:40.436Z,31.08
2019-04-16T12:18:48.041Z,30.30
2019-04-16T12:21:58.608Z,29.81
2019-04-16T12:25:02.588Z,31.64
2019-04-16T12:28:14.322Z,30.90
2019-04-16T12:31:20.717Z,30.97
2019-04-16T12:34:22.988Z,31.42
2019-04-16T12:37:30.053Z,28.02
2019-04-16T12:40:33.711Z,29.78
2019-04-16T12:43:30.093Z,29.53
2019-04-16T12:46:31.359Z,29.50
2019-04-16T12:49:38.048Z,29.54
2019-04-16T12:52:46.919Z,29.91
2019-04-16T12:55:53.651Z,30.13
2019-04-16T12:58:51.241Z,30.03
2019-04-16T13:01:58.052Z,29.96
2019-04-16T13:05:20.897Z,29.71
2019-04-16T13:08:32.911Z,29.60
2019-04-16T13:11:46.739Z,29.91
2019-04-16T13:15:04.275Z,29.60
2019-04-16T13:18:06.232Z,29.50
2019-04-16T13:21:16.875Z,29.97
2019-04-16T13:24:18.509Z,29.90
2019-04-16T13:27:11.611Z,29.58
2019-04-16T13:30:01.987Z,29.43
2019-04-16T13:32:50.152Z,29.01
2019-04-16T13:35:38.845Z,29.34
2019-04-16T13:38:28.448Z,29.43
2019-04-16T13:41:16.889Z,28.88
2019-04-16T13:44:09.846Z,29.60
2019-04-16T13:47:03.027Z,27.94
2019-04-16T13:50:02.630Z,28.73
2019-04-16T13:52:48.362Z,28.03
2019-04-16T13:55:55.958Z,26.27
2019-04-16T13:59:06.982Z,26.31
2019-04-16T14:02:03.632Z,27.91
2019-04-16T14:04:52.601Z,27.64
2019-04-16T14:07:41.671Z,26.54
2019-04-16T14:10:30.244Z,26.69
2019-04-16T14:13:19.075Z,27.42
2019-04-16T14:16:12.757Z,25.23
2019-04-16T14:19:02.480Z,26.69
2019-04-16T14:21:50.595Z,26.12
2019-04-16T14:24:39.540Z,26.13
2019-04-16T14:27:28.030Z,24.74
2019-04-16T14:30:20.176Z,24.94
2019-04-16T14:33:08.833Z,23.11
2019-04-16T14:35:57.978Z,23.79
2019-04-16T14:38:50.374Z,24.20
2019-04-16T14:41:38.839Z,22.49
2019-04-16T14:44:31.669Z,23.86
2019-04-16T14:47:21.111Z,24.17
2019-04-16T14:50:13.327Z,24.81
2019-04-16T14:53:00.550Z,24.17
2019-04-16T14:56:00.584Z,25.12
2019-04-16T14:59:09.296Z,25.54
2019-04-16T15:02:09.617Z,25.87
2019-04-16T15:05:16.446Z,26.72
2019-04-16T15:08:24.207Z,26.06
2019-04-16T15:11:38.032Z,26.86
2019-04-16T15:14:40.376Z,26.37
2019-04-16T15:17:48.206Z,24.29
2019-04-16T15:20:54.341Z,26.12
2019-04-16T15:24:20.212Z,25.33
2019-04-16T15:27:37.251Z,26.26
2019-04-16T15:31:01.518Z,27.17
2019-04-16T15:33:51.739Z,27.78
2019-04-16T15:36:49.898Z,27.77
2019-04-16T15:40:01.333Z,27.29
2019-04-16T15:43:03.269Z,27.43
2019-04-16T15:46:25.220Z,27.73
2019-04-16T15:49:23.283Z,27.63
2019-04-16T15:52:36.235Z,26.31
2019-04-16T15:55:44.564Z,25.09
2019-04-16T15:58:52.534Z,24.51
2019-04-16T16:02:03.709Z,25.59
2019-04-16T16:04:59.199Z,26.36
2019-04-16T16:08:01.442Z,27.10
2019-04-16T16:10:53.792Z,27.60
2019-04-16T16:13:42.753Z,26.45
2019-04-16T16:16:41.562Z,27.42
2019-04-16T16:19:21.680Z,27.71
2019-04-16T16:22:12.031Z,27.35
2019-04-16T16:25:02.591Z,28.20
2019-04-16T16:27:51.477Z,28.09
2019-04-16T16:30:40.302Z,26.76
2019-04-16T16:33:29.281Z,27.92
2019-04-16T16:36:18.282Z,28.95
2019-04-16T16:39:07.616Z,27.93
2019-04-16T16:41:56.131Z,27.08
2019-04-16T16:44:44.601Z,27.40
2019-04-16T16:47:40.483Z,27.17
2019-04-16T16:50:29.223Z,28.43
2019-04-16T16:53:29.379Z,28.16
2019-04-16T16:56:36.990Z,28.24
2019-04-16T16:59:43.160Z,29.53
2019-04-16T17:03:00.036Z,29.59
2019-04-16T17:05:49.698Z,29.40
2019-04-16T17:08:38.235Z,29.99
2019-04-16T17:11:27.340Z,30.52
2019-04-16T17:14:16.086Z,30.56
2019-04-16T17:17:13.857Z,30.64
2019-04-16T17:19:55.795Z,32.29
2019-04-16T17:22:45.134Z,32.15
2019-04-16T17:25:36.677Z,32.55
2019-04-16T17:28:24.925Z,32.91
2019-04-16T17:31:14.480Z,31.88
2019-04-16T17:34:03.419Z,30.61
2019-04-16T17:36:52.643Z,32.72
2019-04-16T17:40:00.757Z,32.21
2019-04-16T17:42:51.904Z,32.96
2019-04-16T17:45:51.926Z,33.02
2019-04-16T17:48:51.103Z,32.74
2019-04-16T17:51:48.346Z,32.24
2019-04-16T17:55:02.243Z,32.88
2019-04-16T17:58:00.721Z,33.03
2019-04-16T18:01:26.500Z,33.41
2019-04-16T18:04:36.640Z,34.75
2019-04-16T18:07:43.072Z,33.99
2019-04-16T18:11:00.310Z,33.66
2019-04-16T18:14:04.647Z,33.67
2019-04-16T18:16:55.952Z,33.89
2019-04-16T18:20:06.295Z,33.51
2019-04-16T18:23:12.915Z,33.59
2019-04-16T18:26:27.574Z,33.07
2019-04-16T18:29:23.269Z,33.21
2019-04-16T18:32:31.793Z,33.78
2019-04-16T18:35:28.089Z,33.40
2019-04-16T18:38:33.698Z,34.00
2019-04-16T18:41:32.574Z,34.18
2019-04-16T18:44:55.021Z,34.49
2019-04-16T18:48:05.365Z,34.06
2019-04-16T18:50:51.776Z,35.92
2019-04-16T18:53:43.362Z,35.38
2019-04-16T18:56:33.018Z,35.37
2019-04-16T18:59:21.898Z,36.63
2019-04-16T19:02:10.461Z,35.75
2019-04-16T19:04:59.085Z,36.92
2019-04-16T19:07:47.969Z,36.92
2019-04-16T19:10:36.569Z,37.18
2019-04-16T19:13:25.656Z,37.20
2019-04-16T19:16:15.832Z,37.57
2019-04-16T19:19:04.868Z,38.23
2019-04-16T19:21:54.184Z,38.35
2019-04-16T19:24:42.875Z,38.54
2019-04-16T19:27:31.910Z,38.68
2019-04-16T19:30:22.914Z,37.23
2019-04-16T19:33:12.299Z,37.51
2019-04-16T19:36:01.047Z,37.07
2019-04-16T19:38:50.580Z,37.05
2019-04-16T19:41:41.356Z,37.06
2019-04-16T19:44:33.297Z,37.74
2019-04-16T19:47:23.125Z,37.73
2019-04-16T19:50:10.641Z,37.92
2019-04-16T19:52:59.502Z,37.58
2019-04-16T19:55:48.105Z,37.76
2019-04-16T19:58:37.142Z,38.39
2019-04-16T20:01:26.234Z,38.63
2019-04-16T20:04:15.180Z,39.21
2019-04-16T20:07:03.452Z,39.34
2019-04-16T20:09:52.483Z,39.50
2019-04-16T20:12:41.456Z,39.53
2019-04-16T20:15:30.338Z,39.56
2019-04-16T20:18:22.221Z,39.59
2019-04-16T20:21:10.938Z,39.64
2019-04-16T20:23:59.460Z,39.39
2019-04-16T20:26:48.507Z,40.35
2019-04-16T20:29:37.037Z,41.59
2019-04-16T20:32:26.763Z,41.96
2019-04-16T20:35:18.244Z,41.49
2019-04-16T20:38:05.118Z,42.81
2019-04-16T20:40:53.978Z,42.60
2019-04-16T20:43:43.141Z,42.42
2019-04-16T20:46:32.433Z,41.75
2019-04-16T20:49:20.818Z,41.72
2019-04-16T20:52:09.647Z,42.14
2019-04-16T20:54:58.025Z,42.43
2019-04-16T20:57:47.223Z,42.78
2019-04-16T21:00:42.327Z,43.96
2019-04-16T21:03:31.052Z,43.69
2019-04-16T21:06:18.912Z,44.16
2019-04-16T21:09:08.534Z,44.22
2019-04-16T21:11:57.166Z,44.69
2019-04-16T21:14:46.149Z,44.72
2019-04-16T21:17:38.156Z,44.82
2019-04-16T21:20:26.250Z,45.42
2019-04-16T21:23:14.517Z,44.87
2019-04-16T21:26:03.056Z,45.20
2019-04-16T21:29:09.859Z,45.24
2019-04-16T21:32:01.951Z,45.69
2019-04-16T21:34:58.679Z,46.21
2019-04-16T21:38:07.062Z,46.31
2019-04-16T21:40:56.441Z,46.37
2019-04-16T21:43:46.172Z,46.47
2019-04-16T21:46:35.131Z,46.87
2019-04-16T21:49:37.790Z,47.18
2019-04-16T21:52:13.844Z,47.21
2019-04-16T21:55:04.656Z,47.81
2019-04-16T21:57:52.971Z,46.66
2019-04-16T22:01:07.023Z,46.55
2019-04-16T22:04:14.678Z,45.97
2019-04-16T22:07:07.165Z,46.05
2019-04-16T22:09:54.827Z,46.78
2019-04-16T22:12:44.700Z,47.09
2019-04-16T22:15:33.866Z,46.63
2019-04-16T22:18:22.826Z,46.73
2019-04-16T22:21:11.992Z,47.11
2019-04-16T22:24:00.820Z,47.66
2019-04-16T22:26:49.799Z,47.55
2019-04-16T22:29:38.489Z,48.94
2019-04-16T22:32:30.151Z,48.13
2019-04-16T22:35:16.725Z,48.19
2019-04-16T22:38:05.140Z,48.30
2019-04-16T22:41:27.435Z,48.39
2019-04-16T22:44:30.843Z,48.79
2019-04-16T22:47:24.561Z,48.93
2019-04-16T22:50:17.001Z,48.74
2019-04-16T22:53:03.604Z,48.46
2019-04-16T22:55:56.333Z,48.54
2019-04-16T22:58:49.452Z,48.13
2019-04-16T23:01:41.710Z,47.88
2019-04-16T23:04:28.861Z,47.97
2019-04-16T23:07:17.692Z,48.06
2019-04-16T23:10:07.354Z,48.12
2019-04-16T23:12:59.534Z,48.80
2019-04-16T23:15:46.164Z,49.96
2019-04-16T23:18:35.212Z,50.26
2019-04-16T23:21:23.921Z,50.26
2019-04-16T23:24:12.564Z,50.16
2019-04-16T23:27:04.146Z,49.96
2019-04-16T23:29:50.969Z,51.24
2019-04-16T23:32:39.649Z,51.46
2019-04-16T23:35:28.028Z,50.68
2019-04-16T23:38:16.770Z,50.35
2019-04-16T23:41:05.308Z,51.10
2019-04-16T23:44:25.792Z,51.58
2019-04-16T23:47:31.020Z,51.17
2019-04-16T23:50:44.128Z,51.09
2019-04-16T23:53:48.629Z,51.74
2019-04-16T23:56:49.753Z,52.53
